createdAt,value
2023-03-21T00:01:52.289Z,85.60
2023-03-21T00:04:28.353Z,85.50
2023-03-21T00:06:59.878Z,81.30
2023-03-21T00:09:28.193Z,80.80
2023-03-21T00:12:02.718Z,76.10
2023-03-21T00:14:31.151Z,81.10
2023-03-21T00:16:59.246Z,78.50
2023-03-21T00:19:29.379Z,78.40
2023-03-21T00:22:07.447Z,75.20
2023-03-21T00:24:37.084Z,71.60
2023-03-21T00:27:33.636Z,81.70
2023-03-21T00:29:56.891Z,82.60
2023-03-21T00:32:31.870Z,77.30
2023-03-21T00:35:31.660Z,75.30
2023-03-21T00:37:49.848Z,72.00
2023-03-21T00:40:28.022Z,73.10
2023-03-21T00:42:59.068Z,78.70
2023-03-21T00:45:28.070Z,77.90
2023-03-21T00:47:56.497Z,78.20
2023-03-21T00:50:24.626Z,75.20
2023-03-21T00:52:52.837Z,77.70
2023-03-21T00:55:28.398Z,76.80
2023-03-21T00:58:02.197Z,75.40
2023-03-21T01:00:31.087Z,76.90
2023-03-21T01:03:17.568Z,75.30
2023-03-21T01:06:04.736Z,73.70
2023-03-21T01:08:48.548Z,77.40
2023-03-21T01:11:24.714Z,76.80
2023-03-21T01:13:59.634Z,75.20
2023-03-21T01:16:32.853Z,77.50
2023-03-21T01:19:02.090Z,75.80
2023-03-21T01:21:33.300Z,80.20
2023-03-21T01:24:02.036Z,71.70
2023-03-21T01:26:30.604Z,72.80
2023-03-21T01:28:58.919Z,76.70
2023-03-21T01:31:26.924Z,71.20
2023-03-21T01:33:55.593Z,77.30
2023-03-21T01:36:25.571Z,72.70
2023-03-21T01:38:58.534Z,81.00
2023-03-21T01:41:42.538Z,71.70
2023-03-21T01:44:20.309Z,69.20
2023-03-21T01:47:07.413Z,74.80
2023-03-21T01:49:48.521Z,79.90
2023-03-21T01:52:39.126Z,74.90
2023-03-21T01:55:13.984Z,74.40
2023-03-21T01:58:09.590Z,71.60
2023-03-21T02:00:48.958Z,70.40
2023-03-21T02:03:35.241Z,72.60
2023-03-21T02:06:50.599Z,63.30
2023-03-21T02:09:42.436Z,70.50
2023-03-21T02:12:16.401Z,65.50
2023-03-21T02:14:45.980Z,68.60
2023-03-21T02:17:39.811Z,68.20
2023-03-21T02:20:17.481Z,69.00
2023-03-21T02:23:01.436Z,68.70
2023-03-21T02:25:48.235Z,68.60
2023-03-21T02:28:39.505Z,66.90
2023-03-21T02:31:28.379Z,70.10
2023-03-21T02:34:22.186Z,68.30
2023-03-21T02:37:03.014Z,70.70
2023-03-21T02:39:55.836Z,72.50
2023-03-21T02:42:48.810Z,70.90
2023-03-21T02:45:22.393Z,66.60
2023-03-21T02:48:00.050Z,72.60
2023-03-21T02:50:34.802Z,65.80
2023-03-21T02:53:04.491Z,72.30
2023-03-21T02:55:32.980Z,68.70
2023-03-21T02:58:13.157Z,71.10
2023-03-21T03:00:49.596Z,73.30
2023-03-21T03:03:34.479Z,72.00
2023-03-21T03:06:17.344Z,72.50
2023-03-21T03:09:02.685Z,73.40
2023-03-21T03:11:33.394Z,71.60
2023-03-21T03:17:22.894Z,73.80
2023-03-21T03:20:16.522Z,68.80
2023-03-21T03:22:58.650Z,70.50
2023-03-21T03:25:42.159Z,80.20
2023-03-21T03:28:13.024Z,77.20
2023-03-21T03:30:51.020Z,73.10
2023-03-21T03:33:27.416Z,71.80
2023-03-21T03:36:05.097Z,73.00
2023-03-21T03:38:35.428Z,73.90
2023-03-21T03:41:11.523Z,68.30
2023-03-21T03:43:48.709Z,69.70
2023-03-21T03:46:33.630Z,75.40
2023-03-21T03:49:04.792Z,69.30
2023-03-21T03:51:43.606Z,62.70
2023-03-21T03:54:24.747Z,69.10
2023-03-21T03:56:57.032Z,65.40
2023-03-21T03:59:25.700Z,70.80
2023-03-21T04:02:01.294Z,77.90
2023-03-21T04:04:29.859Z,70.90
2023-03-21T04:06:58.698Z,68.80
2023-03-21T04:09:41.209Z,71.30
2023-03-21T04:12:13.002Z,70.30
2023-03-21T04:14:46.982Z,79.20
2023-03-21T04:17:22.664Z,72.30
2023-03-21T04:19:55.564Z,77.30
2023-03-21T04:22:25.934Z,77.20
2023-03-21T04:24:54.597Z,77.50
2023-03-21T04:27:23.108Z,78.80
2023-03-21T04:30:12.243Z,79.50
2023-03-21T04:33:03.802Z,78.10
2023-03-21T04:35:37.064Z,76.30
2023-03-21T04:38:06.026Z,75.40
2023-03-21T04:40:34.014Z,76.80
2023-03-21T04:43:02.115Z,77.10
2023-03-21T04:45:30.934Z,74.60
2023-03-21T04:47:59.221Z,77.00
2023-03-21T04:50:32.786Z,82.20
2023-03-21T04:53:01.016Z,80.60
2023-03-21T04:55:31.761Z,82.00
2023-03-21T04:58:00.242Z,83.70
2023-03-21T05:00:28.210Z,82.20
2023-03-21T05:02:59.104Z,85.40
2023-03-21T05:05:28.156Z,87.50
2023-03-21T05:07:56.098Z,88.00
2023-03-21T05:10:27.160Z,81.70
2023-03-21T05:12:55.144Z,84.40
2023-03-21T05:15:23.018Z,84.30
2023-03-21T05:17:52.227Z,85.20
2023-03-21T05:20:20.250Z,92.60
2023-03-21T05:22:50.286Z,80.60
2023-03-21T05:25:21.268Z,86.20
2023-03-21T05:28:11.718Z,81.00
2023-03-21T05:30:43.443Z,88.10
2023-03-21T05:33:13.294Z,82.40
2023-03-21T05:35:42.016Z,87.00
2023-03-21T05:38:12.369Z,87.60
2023-03-21T05:40:50.360Z,80.80
2023-03-21T05:43:19.626Z,83.30
2023-03-21T05:45:48.450Z,87.80
2023-03-21T05:48:17.695Z,88.90
2023-03-21T05:51:08.945Z,83.70
2023-03-21T05:53:36.936Z,82.20
2023-03-21T05:56:06.597Z,81.10
2023-03-21T05:58:57.185Z,77.80
2023-03-21T06:01:28.401Z,84.00
2023-03-21T06:04:04.958Z,81.40
2023-03-21T06:06:33.268Z,87.40
2023-03-21T06:09:01.794Z,77.80
2023-03-21T06:11:32.094Z,83.60
2023-03-21T06:14:18.247Z,80.40
2023-03-21T06:16:47.394Z,79.70
2023-03-21T06:19:15.781Z,85.30
2023-03-21T06:21:59.900Z,77.70
2023-03-21T06:24:28.220Z,83.70
2023-03-21T06:26:56.217Z,81.20
2023-03-21T06:29:27.063Z,83.30
2023-03-21T06:31:56.168Z,80.20
2023-03-21T06:34:24.563Z,84.10
2023-03-21T06:36:54.705Z,81.20
2023-03-21T06:39:26.326Z,89.40
2023-03-21T06:41:54.380Z,85.10
2023-03-21T06:44:22.774Z,84.30
2023-03-21T06:46:57.952Z,86.30
2023-03-21T06:49:26.921Z,93.00
2023-03-21T06:51:55.715Z,83.30
2023-03-21T06:54:24.911Z,83.90
2023-03-21T06:59:34.419Z,76.00
2023-03-21T07:02:05.508Z,75.80
2023-03-21T07:04:38.602Z,82.80
2023-03-21T07:07:07.694Z,83.90
2023-03-21T07:09:36.938Z,80.10
2023-03-21T07:12:06.140Z,76.40
2023-03-21T07:14:45.367Z,77.20
2023-03-21T07:17:16.869Z,87.40
2023-03-21T07:19:45.247Z,79.60
2023-03-21T07:22:13.653Z,78.30
2023-03-21T07:25:02.383Z,77.70
2023-03-21T07:27:34.537Z,76.70
2023-03-21T07:30:04.828Z,77.80
2023-03-21T07:32:35.337Z,78.10
2023-03-21T07:35:03.671Z,77.30
2023-03-21T07:37:31.849Z,81.10
2023-03-21T07:40:00.401Z,73.00
2023-03-21T07:42:28.894Z,80.40
2023-03-21T07:45:02.258Z,72.70
2023-03-21T07:47:34.389Z,73.00
2023-03-21T07:50:04.554Z,70.10
2023-03-21T07:52:36.482Z,68.50
2023-03-21T07:55:05.855Z,69.60
2023-03-21T07:57:33.867Z,74.00
2023-03-21T08:00:02.416Z,66.90
2023-03-21T08:02:41.282Z,68.10
2023-03-21T08:05:11.936Z,64.10
2023-03-21T08:07:40.605Z,64.20
2023-03-21T08:10:10.919Z,61.40
2023-03-21T08:12:43.361Z,62.70
2023-03-21T08:15:12.791Z,61.70
2023-03-21T08:17:41.020Z,60.60
2023-03-21T08:20:21.118Z,63.00
2023-03-21T08:22:49.468Z,64.50
2023-03-21T08:25:19.550Z,66.00
2023-03-21T08:27:48.327Z,66.20
2023-03-21T08:30:18.450Z,62.00
2023-03-21T08:32:46.664Z,61.10
2023-03-21T08:35:17.387Z,63.10
2023-03-21T08:37:46.062Z,54.90
2023-03-21T08:40:17.186Z,62.90
2023-03-21T08:42:46.574Z,60.40
2023-03-21T08:45:15.649Z,63.90
2023-03-21T08:47:48.157Z,58.40
2023-03-21T08:50:18.805Z,59.00
2023-03-21T08:52:46.811Z,59.60
2023-03-21T08:55:15.827Z,57.30
2023-03-21T08:57:44.722Z,55.40
2023-03-21T09:00:20.842Z,56.90
2023-03-21T09:02:51.437Z,59.80
2023-03-21T09:05:20.271Z,54.40
2023-03-21T09:07:49.668Z,59.40
2023-03-21T09:10:21.539Z,54.90
2023-03-21T09:12:55.793Z,56.60
2023-03-21T09:15:29.023Z,55.70
2023-03-21T09:17:58.448Z,54.30
2023-03-21T09:20:35.847Z,55.10
2023-03-21T09:23:03.820Z,57.50
2023-03-21T09:25:32.647Z,58.60
2023-03-21T09:28:05.405Z,59.70
2023-03-21T09:30:33.966Z,64.00
2023-03-21T09:33:09.680Z,55.80
2023-03-21T09:35:38.164Z,60.50
2023-03-21T09:38:06.967Z,65.10
2023-03-21T09:40:57.288Z,72.10
2023-03-21T09:43:49.599Z,61.60
2023-03-21T09:46:26.004Z,67.40
2023-03-21T09:49:07.909Z,66.50
2023-03-21T09:51:41.310Z,59.80
2023-03-21T09:54:16.047Z,65.70
2023-03-21T09:56:44.039Z,59.30
2023-03-21T09:59:20.324Z,59.80
2023-03-21T10:01:49.517Z,64.40
2023-03-21T10:04:18.982Z,62.30
2023-03-21T10:06:54.290Z,58.60
2023-03-21T10:09:23.535Z,52.20
2023-03-21T10:12:03.809Z,53.40
2023-03-21T10:14:35.275Z,56.30
2023-03-21T10:17:26.189Z,47.70
2023-03-21T10:20:21.390Z,50.40
2023-03-21T10:22:52.769Z,45.90
2023-03-21T10:25:42.214Z,44.80
2023-03-21T10:28:21.455Z,44.30
2023-03-21T10:30:54.570Z,47.30
2023-03-21T10:33:27.849Z,43.90
2023-03-21T10:35:59.017Z,45.30
2023-03-21T10:38:27.289Z,46.60
2023-03-21T10:40:56.040Z,43.90
2023-03-21T10:43:27.017Z,43.90
2023-03-21T10:45:57.039Z,44.90
2023-03-21T10:48:26.170Z,44.40
2023-03-21T10:50:54.976Z,45.80
2023-03-21T10:53:27.829Z,48.50
2023-03-21T10:55:57.501Z,48.20
2023-03-21T10:58:30.685Z,47.40
2023-03-21T11:01:02.744Z,44.70
2023-03-21T11:03:37.173Z,46.20
2023-03-21T11:06:23.826Z,47.20
2023-03-21T11:08:55.583Z,42.10
2023-03-21T11:11:29.939Z,48.20
2023-03-21T11:14:00.667Z,45.80
2023-03-21T11:16:33.307Z,46.10
2023-03-21T11:19:18.776Z,45.60
2023-03-21T11:21:46.757Z,45.60
2023-03-21T11:24:18.277Z,49.40
2023-03-21T11:26:48.227Z,48.20
2023-03-21T11:29:42.639Z,46.10
2023-03-21T11:32:12.253Z,48.00
2023-03-21T11:34:49.200Z,54.30
2023-03-21T11:37:23.778Z,44.10
2023-03-21T11:39:56.564Z,43.40
2023-03-21T11:42:32.790Z,47.40
2023-03-21T11:47:40.673Z,44.30
2023-03-21T11:50:50.989Z,40.90
2023-03-21T11:54:10.752Z,44.10
2023-03-21T11:56:42.692Z,39.30
2023-03-21T11:59:19.461Z,46.10
2023-03-21T12:02:08.079Z,40.40
2023-03-21T12:04:46.634Z,47.10
2023-03-21T12:07:23.702Z,43.70
2023-03-21T12:10:16.856Z,39.90
2023-03-21T12:13:15.828Z,37.70
2023-03-21T12:16:10.117Z,40.10
2023-03-21T12:18:52.065Z,39.70
2023-03-21T12:21:26.957Z,35.60
2023-03-21T12:24:09.084Z,48.00
2023-03-21T12:27:08.309Z,34.90
2023-03-21T12:29:50.522Z,38.70
2023-03-21T12:32:57.928Z,39.80
2023-03-21T12:35:47.521Z,37.40
2023-03-21T12:38:17.336Z,32.10
2023-03-21T12:41:09.401Z,35.00
2023-03-21T12:43:49.600Z,37.50
2023-03-21T12:46:23.761Z,41.60
2023-03-21T12:49:11.821Z,35.10
2023-03-21T12:51:42.359Z,33.70
2023-03-21T12:54:29.178Z,34.80
2023-03-21T12:57:07.362Z,39.10
2023-03-21T13:00:11.880Z,34.00
2023-03-21T13:03:04.675Z,38.80
2023-03-21T13:05:35.828Z,37.60
2023-03-21T13:08:25.975Z,38.10
2023-03-21T13:10:54.806Z,25.30
2023-03-21T13:13:36.543Z,31.80
2023-03-21T13:16:11.045Z,30.40
2023-03-21T13:18:57.999Z,31.10
2023-03-21T13:21:28.788Z,34.50
2023-03-21T13:24:01.243Z,34.90
2023-03-21T13:26:34.418Z,31.70
2023-03-21T13:29:02.452Z,32.00
2023-03-21T13:31:48.908Z,32.20
2023-03-21T13:34:22.531Z,31.30
2023-03-21T13:36:53.811Z,34.60
2023-03-21T13:39:29.170Z,32.30
2023-03-21T13:42:02.475Z,30.50
2023-03-21T13:44:43.437Z,33.20
2023-03-21T13:47:59.927Z,29.30
2023-03-21T13:50:30.454Z,35.30
2023-03-21T13:53:14.250Z,37.80
2023-03-21T13:55:44.566Z,40.20
2023-03-21T13:58:35.280Z,35.20
2023-03-21T14:01:27.503Z,34.80
2023-03-21T14:04:09.528Z,37.90
2023-03-21T14:07:02.553Z,32.00
2023-03-21T14:09:45.734Z,35.20
2023-03-21T14:12:16.376Z,35.60
2023-03-21T14:14:50.723Z,40.30
2023-03-21T14:17:23.082Z,38.70
2023-03-21T14:19:55.479Z,40.20
2023-03-21T14:22:23.955Z,40.30
2023-03-21T14:25:04.033Z,43.10
2023-03-21T14:27:35.429Z,39.30
2023-03-21T14:30:04.637Z,43.80
2023-03-21T14:32:33.624Z,38.60
2023-03-21T14:35:01.780Z,40.60
2023-03-21T14:37:44.190Z,44.30
2023-03-21T14:40:26.605Z,43.30
2023-03-21T14:42:54.894Z,41.80
2023-03-21T14:45:25.428Z,44.70
2023-03-21T14:47:56.770Z,39.10
2023-03-21T14:50:28.687Z,43.10
2023-03-21T14:52:56.756Z,42.60
2023-03-21T14:55:25.695Z,37.50
2023-03-21T14:57:55.704Z,41.00
2023-03-21T15:00:28.630Z,37.10
2023-03-21T15:02:58.645Z,42.00
2023-03-21T15:05:33.494Z,40.80
2023-03-21T15:08:22.950Z,37.80
2023-03-21T15:11:20.545Z,39.20
2023-03-21T15:13:51.419Z,39.30
2023-03-21T15:16:20.033Z,42.10
2023-03-21T15:18:47.968Z,42.70
2023-03-21T15:21:22.217Z,41.20
2023-03-21T15:23:54.690Z,41.20
2023-03-21T15:26:26.512Z,42.00
2023-03-21T15:28:58.451Z,40.20
2023-03-21T15:31:35.449Z,36.60
2023-03-21T15:34:04.416Z,28.90
2023-03-21T15:36:34.357Z,26.20
2023-03-21T15:39:08.597Z,26.70
2023-03-21T15:41:37.817Z,25.50
2023-03-21T15:44:13.587Z,23.30
2023-03-21T15:46:49.004Z,21.60
2023-03-21T15:49:28.814Z,23.80
2023-03-21T15:52:06.114Z,24.00
2023-03-21T15:54:48.117Z,21.30
2023-03-21T15:57:23.332Z,25.60
2023-03-21T15:59:56.057Z,23.80
2023-03-21T16:02:24.676Z,25.30
2023-03-21T16:05:01.640Z,23.50
2023-03-21T16:07:33.740Z,22.70
2023-03-21T16:10:04.647Z,33.10
2023-03-21T16:12:34.225Z,31.90
2023-03-21T16:15:03.299Z,30.20
2023-03-21T16:17:39.502Z,47.60
2023-03-21T16:20:17.491Z,48.50
2023-03-21T16:22:45.514Z,56.30
2023-03-21T16:25:13.767Z,54.40
2023-03-21T16:27:44.923Z,76.20
2023-03-21T16:30:14.880Z,69.80
2023-03-21T16:32:50.364Z,68.30
2023-03-21T16:35:19.202Z,61.60
2023-03-21T16:37:50.866Z,63.90
2023-03-21T16:40:31.048Z,58.00
2023-03-21T16:43:01.015Z,50.20
2023-03-21T16:45:32.469Z,42.60
2023-03-21T16:48:00.952Z,38.70
2023-03-21T16:50:32.478Z,34.50
2023-03-21T16:53:01.280Z,31.40
2023-03-21T16:55:30.368Z,23.10
2023-03-21T16:58:05.734Z,22.50
2023-03-21T17:00:34.810Z,21.10
2023-03-21T17:03:08.692Z,30.20
2023-03-21T17:05:37.405Z,31.50
2023-03-21T17:08:06.710Z,34.30
2023-03-21T17:10:35.513Z,35.70
2023-03-21T17:13:03.459Z,38.60
2023-03-21T17:15:31.968Z,34.80
2023-03-21T17:18:02.581Z,37.60
2023-03-21T17:20:34.496Z,35.10
2023-03-21T17:23:02.473Z,37.60
2023-03-21T17:25:30.497Z,35.30
2023-03-21T17:27:58.552Z,35.70
2023-03-21T17:30:34.372Z,34.00
2023-03-21T17:33:04.312Z,37.30
2023-03-21T17:35:32.414Z,36.70
2023-03-21T17:38:00.456Z,36.10
2023-03-21T17:40:30.394Z,33.70
2023-03-21T17:42:59.396Z,35.60
2023-03-21T17:45:27.387Z,36.40
2023-03-21T17:47:55.832Z,35.90
2023-03-21T17:50:27.860Z,36.00
2023-03-21T17:52:58.681Z,34.40
2023-03-21T17:55:28.932Z,40.30
2023-03-21T17:57:56.933Z,35.50
2023-03-21T18:00:29.480Z,38.00
2023-03-21T18:02:57.772Z,36.60
2023-03-21T18:05:26.760Z,40.20
2023-03-21T18:08:09.689Z,35.80
2023-03-21T18:10:40.949Z,36.40
2023-03-21T18:13:09.125Z,29.60
2023-03-21T18:15:44.944Z,27.40
2023-03-21T18:18:14.131Z,21.80
2023-03-21T18:20:52.103Z,22.00
2023-03-21T18:23:21.804Z,19.70
2023-03-21T18:25:52.658Z,19.10
2023-03-21T18:28:27.398Z,19.80
2023-03-21T18:31:16.830Z,23.40
2023-03-21T18:33:45.272Z,23.50
2023-03-21T18:36:15.433Z,21.10
2023-03-21T18:38:43.889Z,29.80
2023-03-21T18:41:15.106Z,27.00
2023-03-21T18:44:04.547Z,32.60
2023-03-21T18:46:33.066Z,35.80
2023-03-21T18:49:26.921Z,33.80
2023-03-21T18:51:50.680Z,34.90
2023-03-21T18:54:19.608Z,33.50
2023-03-21T18:57:33.939Z,33.10
2023-03-21T18:59:39.605Z,35.90
2023-03-21T19:02:08.075Z,33.20
2023-03-21T19:04:37.562Z,34.50
2023-03-21T19:07:05.695Z,35.30
2023-03-21T19:09:54.851Z,36.00
2023-03-21T19:12:23.034Z,36.90
2023-03-21T19:14:51.287Z,40.50
2023-03-21T19:18:21.860Z,43.70
2023-03-21T19:20:16.550Z,42.00
2023-03-21T19:22:44.943Z,40.10
2023-03-21T19:25:13.313Z,39.80
2023-03-21T19:27:43.045Z,40.50
2023-03-21T19:30:14.814Z,37.60
2023-03-21T19:32:44.829Z,40.00
2023-03-21T19:35:13.332Z,42.60
2023-03-21T19:37:41.348Z,43.10
2023-03-21T19:40:10.319Z,38.20
2023-03-21T19:42:38.624Z,35.70
2023-03-21T19:45:07.390Z,39.00
2023-03-21T19:47:35.915Z,38.40
2023-03-21T19:52:52.260Z,38.30
2023-03-21T19:55:20.356Z,35.00
2023-03-21T19:57:49.452Z,36.00
2023-03-21T20:00:18.893Z,37.10
2023-03-21T20:02:47.475Z,35.50
2023-03-21T20:05:17.843Z,38.20
2023-03-21T20:07:46.825Z,41.10
2023-03-21T20:10:14.849Z,32.00
2023-03-21T20:12:43.818Z,37.80
2023-03-21T20:15:18.380Z,37.50
2023-03-21T20:17:48.809Z,37.60
2023-03-21T20:20:18.407Z,39.60
2023-03-21T20:23:06.172Z,37.30
2023-03-21T20:25:47.607Z,36.80
2023-03-21T20:28:24.241Z,37.30
2023-03-21T20:30:56.819Z,36.90
2023-03-21T20:33:25.610Z,38.70
2023-03-21T20:38:47.949Z,37.10
2023-03-21T20:41:16.027Z,36.80
2023-03-21T20:44:34.426Z,37.30
2023-03-21T20:46:37.606Z,39.00
2023-03-21T20:49:09.469Z,36.10
2023-03-21T20:52:40.833Z,48.30
2023-03-21T20:54:26.475Z,46.80
2023-03-21T20:56:55.341Z,42.80
2023-03-21T20:59:27.345Z,39.50
2023-03-21T21:01:58.344Z,39.50
2023-03-21T21:07:17.304Z,40.40
2023-03-21T21:09:45.953Z,43.00
2023-03-21T21:12:15.050Z,49.40
2023-03-21T21:14:43.847Z,54.60
2023-03-21T21:17:53.971Z,53.50
2023-03-21T21:22:56.921Z,43.20
2023-03-21T21:25:26.957Z,45.70
2023-03-21T21:27:55.098Z,41.90
2023-03-21T21:30:23.319Z,41.20
2023-03-21T21:32:51.482Z,39.60
2023-03-21T21:35:20.790Z,37.40
2023-03-21T21:37:51.048Z,38.60
2023-03-21T21:40:20.721Z,38.90
2023-03-21T21:42:51.839Z,38.80
2023-03-21T21:45:20.167Z,39.60
2023-03-21T21:47:48.558Z,40.70
2023-03-21T21:50:16.498Z,34.30
2023-03-21T21:52:52.758Z,36.40
2023-03-21T21:55:22.982Z,35.00
2023-03-21T21:57:51.158Z,36.00
2023-03-21T22:00:19.685Z,40.30
2023-03-21T22:02:48.183Z,38.70
2023-03-21T22:05:16.506Z,39.10
2023-03-21T22:07:48.862Z,38.40
2023-03-21T22:10:17.035Z,38.60
2023-03-21T22:12:45.265Z,42.70
2023-03-21T22:15:13.510Z,37.30
2023-03-21T22:17:41.973Z,34.60
2023-03-21T22:20:12.193Z,33.60
2023-03-21T22:22:41.614Z,35.10
2023-03-21T22:25:11.794Z,31.90
2023-03-21T22:27:39.933Z,32.70
2023-03-21T22:30:09.610Z,32.20
2023-03-21T22:32:38.558Z,31.20
2023-03-21T22:35:07.188Z,27.50
2023-03-21T22:37:36.845Z,29.20
2023-03-21T22:40:08.267Z,30.00
2023-03-21T22:42:37.221Z,30.70
2023-03-21T22:45:06.405Z,31.50
2023-03-21T22:47:34.501Z,34.80
2023-03-21T22:50:04.465Z,32.10
2023-03-21T22:52:33.278Z,34.00
2023-03-21T22:55:10.059Z,33.20
2023-03-21T22:57:39.671Z,31.80
2023-03-21T23:00:14.415Z,32.70
2023-03-21T23:02:44.129Z,33.00
2023-03-21T23:05:12.340Z,32.40
2023-03-21T23:07:40.617Z,31.80
2023-03-21T23:10:12.378Z,33.10
2023-03-21T23:12:40.634Z,32.40
2023-03-21T23:15:10.002Z,32.50
2023-03-21T23:17:38.867Z,35.20
2023-03-21T23:20:08.677Z,33.60
2023-03-21T23:22:39.646Z,30.30
2023-03-21T23:25:08.308Z,29.00
2023-03-21T23:27:36.998Z,33.00
2023-03-21T23:30:07.662Z,30.00
2023-03-21T23:32:36.969Z,33.20
2023-03-21T23:35:13.041Z,29.70
2023-03-21T23:37:51.960Z,31.50
2023-03-21T23:42:48.462Z,30.40
2023-03-21T23:45:16.566Z,30.30
2023-03-21T23:47:49.294Z,30.90
2023-03-21T23:50:18.112Z,29.40
2023-03-21T23:52:49.837Z,27.30
2023-03-21T23:55:18.217Z,27.50
2023-03-21T23:57:46.193Z,26.50
